createdAt,value
2022-08-03T00:01:53.398Z,99418.28
2022-08-03T00:04:20.217Z,99415.66
2022-08-03T00:06:47.034Z,99417.50
2022-08-03T00:09:13.952Z,99420.19
2022-08-03T00:11:40.803Z,99419.34
2022-08-03T00:14:08.264Z,99427.34
2022-08-03T00:16:35.218Z,99426.56
2022-08-03T00:19:02.733Z,99423.03
2022-08-03T00:21:29.622Z,99423.94
2022-08-03T00:23:56.788Z,99423.13
2022-08-03T00:26:23.954Z,99425.88
2022-08-03T00:28:50.985Z,99423.44
2022-08-03T00:31:19.732Z,99421.75
2022-08-03T00:34:04.961Z,99420.19
2022-08-03T00:36:33.038Z,99415.06
2022-08-03T00:39:00.125Z,99418.63
2022-08-03T00:41:27.053Z,99427.38
2022-08-03T00:43:53.927Z,99414.38
2022-08-03T00:46:22.442Z,99419.78
2022-08-03T00:48:51.038Z,99414.75
2022-08-03T00:51:20.018Z,99421.03
2022-08-03T00:53:46.908Z,99421.94
2022-08-03T00:56:15.477Z,99419.47
2022-08-03T00:58:44.765Z,99407.25
2022-08-03T01:01:12.672Z,99406.56
2022-08-03T01:03:40.295Z,99407.50
2022-08-03T01:06:18.737Z,99402.38
2022-08-03T01:09:04.588Z,99406.41
2022-08-03T01:12:00.076Z,99416.28
2022-08-03T01:14:50.737Z,99411.28
2022-08-03T01:17:29.308Z,99414.91
2022-08-03T01:20:11.812Z,99408.81
2022-08-03T01:23:08.967Z,99407.19
2022-08-03T01:25:54.363Z,99401.47
2022-08-03T01:29:02.949Z,99406.34
2022-08-03T01:31:35.717Z,99403.19
2022-08-03T01:34:25.408Z,99410.38
2022-08-03T01:36:56.834Z,99409.47
2022-08-03T01:39:25.402Z,99413.91
2022-08-03T01:41:59.965Z,99413.91
2022-08-03T01:44:31.147Z,99411.34
2022-08-03T01:47:00.291Z,99416.75
2022-08-03T01:49:33.853Z,99416.72
2022-08-03T01:52:05.401Z,99409.78
2022-08-03T01:54:37.855Z,99416.66
2022-08-03T01:57:05.320Z,99412.41
2022-08-03T01:59:35.852Z,99415.78
2022-08-03T02:02:27.740Z,99419.38
2022-08-03T02:04:55.834Z,99420.97
2022-08-03T02:07:24.948Z,99421.75
2022-08-03T02:09:54.277Z,99427.69
2022-08-03T02:12:24.053Z,99434.41
2022-08-03T02:15:12.664Z,99428.22
2022-08-03T02:17:42.808Z,99429.78
2022-08-03T02:20:12.279Z,99435.84
2022-08-03T02:22:43.913Z,99425.28
2022-08-03T02:25:12.761Z,99421.88
2022-08-03T02:27:55.762Z,99433.59
2022-08-03T02:30:31.065Z,99430.06
2022-08-03T02:32:59.478Z,99431.75
2022-08-03T02:35:29.191Z,99435.19
2022-08-03T02:38:01.154Z,99433.25
2022-08-03T02:40:29.957Z,99434.88
2022-08-03T02:43:00.638Z,99434.72
2022-08-03T02:45:29.743Z,99433.72
2022-08-03T02:48:02.834Z,99435.38
2022-08-03T02:50:31.049Z,99437.94
2022-08-03T02:52:58.925Z,99436.03
2022-08-03T02:55:27.578Z,99444.59
2022-08-03T02:57:57.106Z,99438.19
2022-08-03T03:00:29.751Z,99440.72
2022-08-03T03:02:58.969Z,99450.13
2022-08-03T03:05:54.866Z,99437.78
2022-08-03T03:08:20.507Z,99446.28
2022-08-03T03:10:49.002Z,99450.47
2022-08-03T03:13:23.180Z,99443.25
2022-08-03T03:15:50.944Z,99439.34
2022-08-03T03:18:22.239Z,99441.69
2022-08-03T03:20:52.886Z,99443.09
2022-08-03T03:23:22.370Z,99441.97
2022-08-03T03:25:50.197Z,99442.63
2022-08-03T03:28:17.522Z,99449.38
2022-08-03T03:30:44.617Z,99454.47
2022-08-03T03:33:19.868Z,99452.28
2022-08-03T03:35:47.443Z,99459.97
2022-08-03T03:38:14.489Z,99456.16
2022-08-03T03:40:41.879Z,99448.78
2022-08-03T03:43:10.964Z,99453.63
2022-08-03T03:45:40.749Z,99456.00
2022-08-03T03:48:08.733Z,99452.81
2022-08-03T03:50:37.444Z,99449.84
2022-08-03T03:53:04.863Z,99456.59
2022-08-03T03:55:31.740Z,99451.06
2022-08-03T03:57:58.701Z,99452.47
2022-08-03T04:00:25.551Z,99460.06
2022-08-03T04:02:52.439Z,99456.31
2022-08-03T04:05:37.801Z,99456.09
2022-08-03T04:08:31.079Z,99462.78
2022-08-03T04:11:18.321Z,99456.78
2022-08-03T04:13:57.090Z,99465.19
2022-08-03T04:16:35.314Z,99463.81
2022-08-03T04:19:09.424Z,99462.28
2022-08-03T04:21:40.689Z,99467.16
2022-08-03T04:24:10.649Z,99465.00
2022-08-03T04:26:40.221Z,99471.81
2022-08-03T04:29:09.465Z,99466.31
2022-08-03T04:31:38.531Z,99476.53
2022-08-03T04:34:05.578Z,99463.06
2022-08-03T04:36:37.410Z,99466.22
2022-08-03T04:39:04.096Z,99465.63
2022-08-03T04:41:32.160Z,99471.16
2022-08-03T04:44:20.974Z,99469.28
2022-08-03T04:46:57.186Z,99478.75
2022-08-03T04:49:24.757Z,99475.00
2022-08-03T04:51:52.727Z,99473.84
2022-08-03T04:54:19.541Z,99463.81
2022-08-03T04:56:46.387Z,99468.78
2022-08-03T04:59:13.641Z,99466.41
2022-08-03T05:01:42.248Z,99467.66
2022-08-03T05:04:09.527Z,99468.06
2022-08-03T05:06:36.679Z,99465.97
2022-08-03T05:09:14.638Z,99468.69
2022-08-03T05:11:41.545Z,99466.81
2022-08-03T05:14:08.440Z,99469.28
2022-08-03T05:16:35.349Z,99467.41
2022-08-03T05:19:02.231Z,99467.31
2022-08-03T05:21:52.166Z,99462.56
2022-08-03T05:24:16.209Z,99461.94
2022-08-03T05:26:43.078Z,99464.81
2022-08-03T05:29:09.872Z,99464.47
2022-08-03T05:31:36.700Z,99469.25
2022-08-03T05:34:03.690Z,99481.34
2022-08-03T05:36:30.611Z,99474.16
2022-08-03T05:39:02.221Z,99482.84
2022-08-03T05:41:37.188Z,99484.38
2022-08-03T05:44:04.968Z,99473.47
2022-08-03T05:46:32.177Z,99475.75
2022-08-03T05:48:59.137Z,99481.47
2022-08-03T05:51:26.107Z,99485.38
2022-08-03T05:53:52.928Z,99482.47
2022-08-03T05:56:24.287Z,99481.75
2022-08-03T05:58:52.229Z,99477.97
2022-08-03T06:01:21.925Z,99484.63
2022-08-03T06:03:50.281Z,99477.25
2022-08-03T06:06:17.694Z,99473.13
2022-08-03T06:08:45.454Z,99477.88
2022-08-03T06:11:13.186Z,99472.00
2022-08-03T06:13:40.633Z,99469.78
2022-08-03T06:16:07.461Z,99462.41
2022-08-03T06:18:34.815Z,99467.34
2022-08-03T06:21:14.019Z,99471.13
2022-08-03T06:23:54.810Z,99466.97
2022-08-03T06:26:27.889Z,99466.94
2022-08-03T06:28:55.574Z,99470.69
2022-08-03T06:31:32.316Z,99471.06
2022-08-03T06:34:33.639Z,99465.16
2022-08-03T06:36:50.057Z,99459.28
2022-08-03T06:39:18.551Z,99457.03
2022-08-03T06:41:45.693Z,99456.41
2022-08-03T06:44:13.410Z,99459.09
2022-08-03T06:46:40.645Z,99457.56
2022-08-03T06:49:08.226Z,99450.03
2022-08-03T06:52:06.042Z,99418.53
2022-08-03T06:54:22.437Z,99382.50
2022-08-03T06:56:49.330Z,99398.94
2022-08-03T07:00:07.822Z,99398.84
2022-08-03T07:02:03.202Z,99397.59
2022-08-03T07:04:30.032Z,99397.16
2022-08-03T07:06:57.122Z,99407.13
2022-08-03T07:09:24.041Z,99376.16
2022-08-03T07:11:50.881Z,99366.78
2022-08-03T07:14:17.675Z,99357.44
2022-08-03T07:16:44.533Z,99347.25
2022-08-03T07:19:12.318Z,99351.34
2022-08-03T07:21:39.149Z,99363.84
2022-08-03T07:24:06.730Z,99377.56
2022-08-03T07:26:33.575Z,99369.03
2022-08-03T07:29:01.555Z,99377.53
2022-08-03T07:31:28.408Z,99381.75
2022-08-03T07:34:01.485Z,99400.03
2022-08-03T07:36:28.404Z,99372.25
2022-08-03T07:38:55.407Z,99374.25
2022-08-03T07:41:22.325Z,99369.09
2022-08-03T07:43:49.141Z,99354.41
2022-08-03T07:46:16.178Z,99354.53
2022-08-03T07:48:43.021Z,99309.13
2022-08-03T07:51:09.898Z,99283.09
2022-08-03T07:53:42.882Z,99282.59
2022-08-03T07:56:14.358Z,99279.34
2022-08-03T07:58:41.227Z,99294.56
2022-08-03T08:01:08.230Z,99264.97
2022-08-03T08:03:52.324Z,99271.03
2022-08-03T08:06:21.271Z,99272.50
2022-08-03T08:08:48.590Z,99267.53
2022-08-03T08:11:15.449Z,99286.28
2022-08-03T08:13:42.351Z,99269.09
2022-08-03T08:16:09.165Z,99283.84
2022-08-03T08:18:35.973Z,99253.63
2022-08-03T08:21:03.534Z,99234.75
2022-08-03T08:23:41.922Z,99260.88
2022-08-03T08:26:09.989Z,99249.97
2022-08-03T08:28:36.797Z,99231.34
2022-08-03T08:31:03.764Z,99231.84
2022-08-03T08:34:02.779Z,99249.63
2022-08-03T08:36:18.306Z,99233.13
2022-08-03T08:38:45.486Z,99205.16
2022-08-03T08:41:14.447Z,99202.72
2022-08-03T08:43:42.498Z,99179.28
2022-08-03T08:46:23.477Z,99182.06
2022-08-03T08:48:51.249Z,99207.94
2022-08-03T08:51:20.742Z,99191.09
2022-08-03T08:53:52.621Z,99175.16
2022-08-03T08:56:22.911Z,99205.97
2022-08-03T08:58:54.121Z,99221.41
2022-08-03T09:01:21.960Z,99225.50
2022-08-03T09:03:49.054Z,99209.91
2022-08-03T09:06:16.530Z,99216.34
2022-08-03T09:08:43.529Z,99213.97
2022-08-03T09:11:12.212Z,99218.22
2022-08-03T09:13:39.967Z,99245.09
2022-08-03T09:16:14.733Z,99251.13
2022-08-03T09:18:47.513Z,99255.28
2022-08-03T09:21:34.895Z,99254.66
2022-08-03T09:24:05.614Z,99261.78
2022-08-03T09:26:37.447Z,99265.63
2022-08-03T09:29:12.856Z,99253.41
2022-08-03T09:31:47.198Z,99239.72
2022-08-03T09:34:16.048Z,99194.75
2022-08-03T09:36:47.909Z,99199.66
2022-08-03T09:39:42.034Z,99211.47
2022-08-03T09:42:15.436Z,99212.44
2022-08-03T09:44:45.039Z,99223.16
2022-08-03T09:47:14.396Z,99196.41
2022-08-03T09:49:56.562Z,99197.69
2022-08-03T09:52:49.763Z,99176.59
2022-08-03T09:56:33.467Z,99174.22
2022-08-03T09:58:10.446Z,99161.41
2022-08-03T10:01:00.848Z,99131.88
2022-08-03T10:03:30.517Z,99082.56
2022-08-03T10:06:00.041Z,99042.28
2022-08-03T10:08:27.407Z,99011.63
2022-08-03T10:10:54.749Z,99035.75
2022-08-03T10:13:23.348Z,99034.63
2022-08-03T10:16:22.081Z,99042.78
2022-08-03T10:18:37.692Z,99043.06
2022-08-03T10:21:07.969Z,99037.75
2022-08-03T10:23:35.959Z,98972.25
2022-08-03T10:26:07.121Z,98911.50
2022-08-03T10:28:42.779Z,98874.56
2022-08-03T10:31:14.058Z,98885.75
2022-08-03T10:33:52.891Z,98921.50
2022-08-03T10:36:24.631Z,98940.13
2022-08-03T10:38:53.712Z,98949.53
2022-08-03T10:41:22.557Z,98898.50
2022-08-03T10:44:01.466Z,98856.50
2022-08-03T10:46:28.854Z,98838.50
2022-08-03T10:48:56.873Z,98830.03
2022-08-03T10:51:24.460Z,98816.13
2022-08-03T10:53:55.661Z,98805.44
2022-08-03T10:56:50.685Z,98777.09
2022-08-03T10:59:28.061Z,98787.19
2022-08-03T11:02:00.382Z,98719.88
2022-08-03T11:04:30.027Z,98675.50
2022-08-03T11:07:16.462Z,98681.09
2022-08-03T11:09:47.690Z,98672.63
2022-08-03T11:12:34.766Z,98620.66
2022-08-03T11:15:08.607Z,98583.84
2022-08-03T11:17:46.252Z,98599.63
2022-08-03T11:20:47.445Z,98587.16
2022-08-03T11:23:15.746Z,98528.66
2022-08-03T11:26:22.673Z,98592.66
2022-08-03T11:28:49.666Z,98595.81
2022-08-03T11:31:46.839Z,98600.19
2022-08-03T11:34:14.587Z,98560.88
2022-08-03T11:37:20.071Z,98530.31
2022-08-03T11:39:49.080Z,98483.53
2022-08-03T11:42:25.602Z,98429.75
2022-08-03T11:44:55.177Z,98402.09
2022-08-03T11:47:23.229Z,98390.44
2022-08-03T11:49:51.877Z,98352.69
2022-08-03T11:52:19.612Z,98366.19
2022-08-03T11:54:56.420Z,98436.53
2022-08-03T11:59:10.767Z,98498.41
2022-08-03T12:00:23.337Z,98484.31
2022-08-03T12:03:03.070Z,98462.72
2022-08-03T12:05:50.998Z,98492.69
2022-08-03T12:08:27.821Z,98548.84
2022-08-03T12:10:56.406Z,98563.81
2022-08-03T12:14:36.756Z,98596.06
2022-08-03T12:16:18.197Z,98641.41
2022-08-03T12:18:45.623Z,98658.81
2022-08-03T12:21:12.944Z,98662.84
2022-08-03T12:23:39.877Z,98614.72
2022-08-03T12:26:09.110Z,98635.84
2022-08-03T12:28:38.329Z,98664.72
2022-08-03T12:31:13.371Z,98667.63
2022-08-03T12:34:04.110Z,98682.03
2022-08-03T12:36:33.458Z,98693.78
2022-08-03T12:39:08.168Z,98708.34
2022-08-03T12:41:37.803Z,98754.47
2022-08-03T12:44:07.141Z,98759.19
2022-08-03T12:46:42.690Z,98756.28
2022-08-03T12:49:19.214Z,98745.53
2022-08-03T12:51:46.143Z,98717.91
2022-08-03T12:54:18.551Z,98718.97
2022-08-03T12:57:08.581Z,98722.69
2022-08-03T12:59:53.278Z,98732.78
2022-08-03T13:02:23.590Z,98749.03
2022-08-03T13:04:52.590Z,98766.78
2022-08-03T13:07:20.502Z,98764.63
2022-08-03T13:09:54.191Z,98737.13
2022-08-03T13:12:23.846Z,98711.84
2022-08-03T13:14:53.483Z,98682.94
2022-08-03T13:17:20.822Z,98672.53
2022-08-03T13:19:49.607Z,98619.72
2022-08-03T13:22:21.780Z,98644.25
2022-08-03T13:24:50.813Z,98637.06
2022-08-03T13:28:01.403Z,98646.34
2022-08-03T13:30:06.450Z,98643.81
2022-08-03T13:32:33.943Z,98653.06
2022-08-03T13:35:02.774Z,98676.22
2022-08-03T13:37:32.530Z,98704.16
2022-08-03T13:40:02.994Z,98741.75
2022-08-03T13:42:35.346Z,98785.47
2022-08-03T13:45:03.874Z,98785.13
2022-08-03T13:47:32.228Z,98780.97
2022-08-03T13:50:01.566Z,98798.56
2022-08-03T13:52:33.005Z,98809.94
2022-08-03T13:55:00.485Z,98781.13
2022-08-03T13:58:11.409Z,98773.88
2022-08-03T14:00:17.202Z,98767.72
2022-08-03T14:03:13.715Z,98762.34
2022-08-03T14:05:42.252Z,98743.31
2022-08-03T14:08:09.557Z,98738.56
2022-08-03T14:10:39.280Z,98736.97
2022-08-03T14:13:06.930Z,98705.19
2022-08-03T14:15:37.902Z,98690.53
2022-08-03T14:18:12.828Z,98669.28
2022-08-03T14:20:50.067Z,98628.56
2022-08-03T14:23:21.166Z,98596.06
2022-08-03T14:25:52.425Z,98641.09
2022-08-03T14:28:24.705Z,98670.78
2022-08-03T14:30:52.878Z,98657.41
2022-08-03T14:33:20.585Z,98668.44
2022-08-03T14:35:47.974Z,98675.19
2022-08-03T14:38:15.552Z,98690.09
2022-08-03T14:40:42.545Z,98692.78
2022-08-03T14:43:09.576Z,98727.63
2022-08-03T14:45:36.476Z,98755.31
2022-08-03T14:50:33.159Z,98789.16
2022-08-03T14:50:52.688Z,98816.03
2022-08-03T14:53:20.093Z,98842.00
2022-08-03T14:55:50.918Z,98866.97
2022-08-03T14:58:21.495Z,98900.47
2022-08-03T15:00:49.911Z,98933.34
2022-08-03T15:03:20.261Z,98965.13
2022-08-03T15:05:47.475Z,98985.13
2022-08-03T15:08:14.353Z,99008.50
2022-08-03T15:10:44.039Z,99033.13
2022-08-03T15:13:13.471Z,99051.81
2022-08-03T15:15:41.297Z,99068.53
2022-08-03T15:18:08.736Z,99080.34
2022-08-03T15:20:51.059Z,99082.41
2022-08-03T15:23:18.653Z,99099.25
2022-08-03T15:26:07.080Z,99107.53
2022-08-03T15:28:33.129Z,99108.94
2022-08-03T15:31:00.729Z,99110.03
2022-08-03T15:33:28.223Z,99121.97
2022-08-03T15:35:55.202Z,99142.44
2022-08-03T15:38:25.716Z,99153.09
2022-08-03T15:40:54.677Z,99165.56
2022-08-03T15:43:22.814Z,99164.59
2022-08-03T15:45:54.656Z,99175.00
2022-08-03T15:48:36.536Z,99181.03
2022-08-03T15:51:07.080Z,99204.19
2022-08-03T15:53:34.491Z,99218.59
2022-08-03T15:56:08.025Z,99233.31
2022-08-03T15:59:04.736Z,99232.09
2022-08-03T16:01:26.348Z,99239.06
2022-08-03T16:03:53.269Z,99236.06
2022-08-03T16:06:29.403Z,99246.53
2022-08-03T16:09:01.433Z,99250.69
2022-08-03T16:11:28.285Z,99266.94
2022-08-03T16:14:12.964Z,99280.06
2022-08-03T16:16:41.991Z,99301.31
2022-08-03T16:19:08.844Z,99314.75
2022-08-03T16:21:40.293Z,99326.88
2022-08-03T16:24:17.251Z,99345.41
2022-08-03T16:26:46.928Z,99373.13
2022-08-03T16:29:23.149Z,99392.88
2022-08-03T16:31:51.546Z,99410.63
2022-08-03T16:34:19.042Z,99413.13
2022-08-03T16:36:45.948Z,99417.13
2022-08-03T16:39:12.975Z,99441.28
2022-08-03T16:41:54.291Z,99464.63
2022-08-03T16:44:27.905Z,99458.91
2022-08-03T16:46:54.737Z,99447.88
2022-08-03T16:49:55.507Z,99460.56
2022-08-03T16:52:08.387Z,99476.00
2022-08-03T16:54:35.300Z,99490.72
2022-08-03T16:57:02.286Z,99500.13
2022-08-03T16:59:35.964Z,99506.13
2022-08-03T17:02:10.034Z,99530.47
2022-08-03T17:04:40.116Z,99543.56
2022-08-03T17:07:19.322Z,99559.13
2022-08-03T17:09:47.105Z,99566.78
2022-08-03T17:12:14.554Z,99583.59
2022-08-03T17:14:42.672Z,99601.03
2022-08-03T17:17:47.498Z,99633.53
2022-08-03T17:20:20.064Z,99636.72
2022-08-03T17:23:03.142Z,99656.50
2022-08-03T17:26:01.643Z,99682.34
2022-08-03T17:28:48.358Z,99702.59
2022-08-03T17:31:23.581Z,99718.38
2022-08-03T17:33:57.954Z,99729.03
2022-08-03T17:36:47.680Z,99749.22
2022-08-03T17:39:30.905Z,99779.38
2022-08-03T17:42:30.959Z,99798.56
2022-08-03T17:44:57.308Z,99814.38
2022-08-03T17:47:40.961Z,99830.84
2022-08-03T17:50:24.148Z,99849.91
2022-08-03T17:53:01.361Z,99875.06
2022-08-03T17:55:56.100Z,99882.25
2022-08-03T17:58:55.044Z,99914.06
2022-08-03T18:02:06.150Z,99922.81
2022-08-03T18:04:42.813Z,99931.41
2022-08-03T18:07:12.716Z,99946.75
2022-08-03T18:10:04.079Z,99968.66
2022-08-03T18:12:51.890Z,99949.31
2022-08-03T18:15:46.565Z,99932.88
2022-08-03T18:18:32.282Z,99925.44
2022-08-03T18:21:04.591Z,99905.38
2022-08-03T18:23:36.909Z,99903.41
2022-08-03T18:26:07.867Z,99893.34
2022-08-03T18:28:40.448Z,99879.75
2022-08-03T18:31:11.628Z,99874.25
2022-08-03T18:34:16.449Z,99872.94
2022-08-03T18:36:30.343Z,99866.56
2022-08-03T18:39:01.631Z,99870.66
2022-08-03T18:41:33.484Z,99862.22
2022-08-03T18:44:08.694Z,99858.88
2022-08-03T18:49:53.961Z,99861.75
2022-08-03T18:52:20.956Z,99870.66
2022-08-03T18:55:09.521Z,99888.38
2022-08-03T18:57:59.759Z,99895.66
2022-08-03T19:00:53.865Z,99904.25
2022-08-03T19:03:24.892Z,99917.78
2022-08-03T19:06:14.582Z,99930.81
2022-08-03T19:08:53.013Z,99920.31
2022-08-03T19:12:10.973Z,99921.72
2022-08-03T19:14:29.698Z,99913.41
2022-08-03T19:17:05.845Z,99913.31
2022-08-03T19:19:44.506Z,99911.09
2022-08-03T19:22:16.156Z,99917.53
2022-08-03T19:24:49.155Z,99921.31
2022-08-03T19:27:16.272Z,99925.06
2022-08-03T19:29:59.511Z,99938.22
2022-08-03T19:32:32.573Z,99949.19
2022-08-03T19:35:01.325Z,99956.75
2022-08-03T19:37:39.911Z,99964.28
2022-08-03T19:40:10.986Z,99967.09
2022-08-03T19:42:44.681Z,99971.72
2022-08-03T19:45:17.035Z,99970.13
2022-08-03T19:47:56.664Z,99984.28
2022-08-03T19:50:25.208Z,99983.75
2022-08-03T19:52:53.150Z,99982.16
2022-08-03T19:55:20.437Z,99978.75
2022-08-03T19:57:49.746Z,99978.75
2022-08-03T20:00:20.025Z,99973.59
2022-08-03T20:02:53.997Z,99971.22
2022-08-03T20:05:20.934Z,99983.84
2022-08-03T20:07:49.965Z,99988.38
2022-08-03T20:10:18.133Z,99989.53
2022-08-03T20:12:46.882Z,99987.78
2022-08-03T20:15:14.149Z,99991.44
2022-08-03T20:17:56.448Z,99992.38
2022-08-03T20:20:34.390Z,100004.66
2022-08-03T20:23:07.076Z,100007.66
2022-08-03T20:25:48.879Z,100014.97
2022-08-03T20:28:32.248Z,100021.41
2022-08-03T20:31:01.758Z,100018.09
2022-08-03T20:33:46.395Z,100027.91
2022-08-03T20:36:17.990Z,100036.00
2022-08-03T20:38:47.398Z,100037.88
2022-08-03T20:41:18.747Z,100038.78
2022-08-03T20:43:46.552Z,100040.72
2022-08-03T20:46:32.639Z,100048.94
2022-08-03T20:49:06.206Z,100053.66
2022-08-03T20:51:50.317Z,100063.56
2022-08-03T20:54:29.601Z,100078.16
2022-08-03T20:57:04.434Z,100094.50
2022-08-03T20:59:50.534Z,100096.50
2022-08-03T21:02:29.704Z,100100.09
2022-08-03T21:05:03.039Z,100101.94
2022-08-03T21:08:03.701Z,100089.66
2022-08-03T21:10:28.640Z,100061.16
2022-08-03T21:13:00.462Z,99862.41
2022-08-03T21:13:22.704Z,100058.78
2022-08-03T21:16:12.360Z,100066.78
2022-08-03T21:18:50.960Z,100060.59
2022-08-03T21:21:20.842Z,100073.25
2022-08-03T21:23:52.980Z,100075.81
2022-08-03T21:26:25.536Z,100058.22
2022-08-03T21:28:55.546Z,100047.81
2022-08-03T21:31:25.638Z,100032.88
2022-08-03T21:34:05.270Z,100020.28
2022-08-03T21:36:36.742Z,100003.81
2022-08-03T21:39:07.035Z,99998.94
2022-08-03T21:41:34.432Z,100002.06
2022-08-03T21:44:02.068Z,100002.66
2022-08-03T21:46:35.639Z,100010.09
2022-08-03T21:50:04.303Z,100004.63
2022-08-03T21:51:54.425Z,100005.38
2022-08-03T21:54:21.682Z,99987.75
2022-08-03T21:56:51.358Z,99968.09
2022-08-03T21:59:20.109Z,99947.84
2022-08-03T22:01:49.130Z,99895.91
2022-08-03T22:04:53.880Z,99842.88
2022-08-03T22:07:08.496Z,99789.13
2022-08-03T22:09:36.241Z,99760.59
2022-08-03T22:12:03.990Z,99736.41
2022-08-03T22:14:33.207Z,99730.47
2022-08-03T22:17:00.789Z,99727.34
2022-08-03T22:19:33.020Z,99725.13
2022-08-03T22:22:01.670Z,99721.06
2022-08-03T22:24:32.719Z,99722.13
2022-08-03T22:27:20.523Z,99720.72
2022-08-03T22:29:49.235Z,99722.69
2022-08-03T22:32:16.258Z,99723.88
2022-08-03T22:34:45.763Z,99730.22
2022-08-03T22:37:15.611Z,99738.19
2022-08-03T22:39:43.853Z,99735.75
2022-08-03T22:42:11.420Z,99735.88
2022-08-03T22:44:38.352Z,99733.47
2022-08-03T22:47:06.256Z,99732.03
2022-08-03T22:49:35.411Z,99729.53
2022-08-03T22:52:02.546Z,99733.03
2022-08-03T22:54:31.749Z,99733.91
2022-08-03T22:56:58.878Z,99728.41
2022-08-03T22:59:40.729Z,99733.53
2022-08-03T23:02:21.256Z,99732.81
2022-08-03T23:04:55.144Z,99738.63
2022-08-03T23:07:30.344Z,99734.63
2022-08-03T23:09:59.686Z,99741.41
2022-08-03T23:12:29.628Z,99735.47
2022-08-03T23:15:06.550Z,99741.78
2022-08-03T23:17:34.319Z,99735.19
2022-08-03T23:20:26.383Z,99745.84
2022-08-03T23:22:54.633Z,99743.50
2022-08-03T23:25:22.103Z,99737.56
2022-08-03T23:28:05.052Z,99749.94
2022-08-03T23:30:37.254Z,99741.13
2022-08-03T23:33:04.566Z,99752.69
2022-08-03T23:36:28.779Z,99750.19
2022-08-03T23:38:37.594Z,99754.84
2022-08-03T23:41:05.058Z,99747.97
2022-08-03T23:43:52.374Z,99749.97
2022-08-03T23:46:22.134Z,99750.16
2022-08-03T23:48:49.695Z,99750.25
2022-08-03T23:51:27.687Z,99758.03
2022-08-03T23:54:03.413Z,99760.00
2022-08-03T23:56:54.396Z,99761.72
2022-08-03T23:59:27.358Z,99759.47
